Atlanta, KS

2:49 AM CDT on August 01, 2015 (GMT -0500)
Logan Township | | Change Station
CLOSE
Current Station
Personal Weather Station
Location: Leon, KS
Elevation: 1355 ft
Nearby Weather Stations

Elev 1355 ft 37.62 °N, 96.75 °W | Updated 14 minutes ago

Clear
Clear
68.7 °F
Feels Like 68.7 °F
N
0.0
Wind Variable Wind from East

Today
High -- | Low -- °F
--% Chance of Precip.
Yesterday
High -- | Low -- °F
Precip. -- in
6:31 AM 8:35 PM
Full, 99% visible
Pressure 30.06 in
Visibility 10.0 miles
Clouds Clear
Dew Point 68 °F
Humidity 98%
Rainfall 0.00 in
Snow Depth Not available.
UV 0 out of 12
Pollen 5.30 out of 12
Air Quality Not available.
Flu Activity Not available.
METAR KWLD 010654Z AUTO 00000KT 10SM CLR 24/22 A3010 RMK AO2 SLP179 T02390222

More Conditions Fewer Conditions

Pressure 30.06 in
Visibility 10.0 miles
Clouds Clear
Dew Point 68 °F
Humidity 98%
Rainfall 0.00 in
Snow Depth Not available.
UV 0 out of 12
Pollen 5.30 out of 12
Air Quality Not available.
Flu Activity Not available.
METAR KWLD 010654Z AUTO 00000KT 10SM CLR 24/22 A3010 RMK AO2 SLP179 T02390222

More Conditions Fewer Conditions

10-Day Weather Forecast

×

Almanac

Astronomy

Aug. 01, 2015 Rise Set
Actual Time
Civil Twilight
Nautical Twilight
Astronomical Twilight
Moon
Length of Visible Light
Length of Day
Tomorrow will be .
, % of the Moon is Illuminated

Today's Extremes

State Highs State Lows

Community

WunderPhotos

Upload Photos

1,842,905 photos uploaded!

WunderBlogs® & News

Nearby

Air Quality

  Air Quality AQ Index Pollutant
Not available.

Snow Depth

Station Depth Elevation

Earthquake Activity

City Distance Mag. Time & Date
Minimum magnitude displayed is 2.5.

Coastal Water Temperatures

Place Temperature

Stations

Nearby Weather Stations

Station Location Temp. Windchill Dew Point Humidity Wind Precip. Elev Updated Type